sensor_id;sensor_type;location;lat;lon;timestamp;temperature;humidity
1578;DHT22;57623;53.608;10.004;2023-07-16T00:02:06;19.60;99.90
1578;DHT22;57623;53.608;10.004;2023-07-16T00:04:34;19.60;99.90
1578;DHT22;57623;53.608;10.004;2023-07-16T00:07:04;19.60;99.90
1578;DHT22;57623;53.608;10.004;2023-07-16T00:09:33;19.60;99.90
1578;DHT22;57623;53.608;10.004;2023-07-16T00:12:01;19.60;99.90
1578;DHT22;57623;53.608;10.004;2023-07-16T00:14:29;19.50;99.90
1578;DHT22;57623;53.608;10.004;2023-07-16T00:16:57;19.40;99.90
1578;DHT22;57623;53.608;10.004;2023-07-16T00:19:26;19.40;99.90
1578;DHT22;57623;53.608;10.004;2023-07-16T00:21:53;19.30;99.90
1578;DHT22;57623;53.608;10.004;2023-07-16T00:24:23;19.30;99.90
1578;DHT22;57623;53.608;10.004;2023-07-16T00:26:52;19.20;99.90
1578;DHT22;57623;53.608;10.004;2023-07-16T00:29:20;19.20;99.90
1578;DHT22;57623;53.608;10.004;2023-07-16T00:31:48;19.10;99.90
1578;DHT22;57623;53.608;10.004;2023-07-16T00:34:16;19.10;99.90
1578;DHT22;57623;53.608;10.004;2023-07-16T00:36:44;19.20;99.90
1578;DHT22;57623;53.608;10.004;2023-07-16T00:39:12;19.20;99.90
1578;DHT22;57623;53.608;10.004;2023-07-16T00:41:41;19.20;99.90
1578;DHT22;57623;53.608;10.004;2023-07-16T00:44:09;19.10;99.90
1578;DHT22;57623;53.608;10.004;2023-07-16T00:46:38;19.10;99.90
1578;DHT22;57623;53.608;10.004;2023-07-16T00:49:06;19.10;99.90
1578;DHT22;57623;53.608;10.004;2023-07-16T00:51:34;19.00;99.90
1578;DHT22;57623;53.608;10.004;2023-07-16T00:54:02;19.00;99.90
1578;DHT22;57623;53.608;10.004;2023-07-16T00:56:31;19.00;99.90
1578;DHT22;57623;53.608;10.004;2023-07-16T00:59:01;19.10;99.90
1578;DHT22;57623;53.608;10.004;2023-07-16T01:01:29;19.00;99.90
1578;DHT22;57623;53.608;10.004;2023-07-16T01:03:57;19.00;99.90
1578;DHT22;57623;53.608;10.004;2023-07-16T01:06:29;18.90;99.90
1578;DHT22;57623;53.608;10.004;2023-07-16T01:09:03;18.90;99.90
1578;DHT22;57623;53.608;10.004;2023-07-16T01:11:34;18.90;99.90
1578;DHT22;57623;53.608;10.004;2023-07-16T01:14:05;18.90;99.90
1578;DHT22;57623;53.608;10.004;2023-07-16T01:16:34;18.90;99.90
1578;DHT22;57623;53.608;10.004;2023-07-16T01:19:03;18.90;99.90
1578;DHT22;57623;53.608;10.004;2023-07-16T01:21:39;18.90;99.90
1578;DHT22;57623;53.608;10.004;2023-07-16T01:24:25;18.90;99.90
1578;DHT22;57623;53.608;10.004;2023-07-16T01:27:17;18.90;99.90
1578;DHT22;57623;53.608;10.004;2023-07-16T01:29:51;18.80;99.90
1578;DHT22;57623;53.608;10.004;2023-07-16T01:32:21;18.80;99.90
1578;DHT22;57623;53.608;10.004;2023-07-16T01:34:51;18.90;99.90
1578;DHT22;57623;53.608;10.004;2023-07-16T01:37:20;18.80;99.90
1578;DHT22;57623;53.608;10.004;2023-07-16T01:39:48;18.80;99.90
1578;DHT22;57623;53.608;10.004;2023-07-16T01:42:16;18.80;99.90
1578;DHT22;57623;53.608;10.004;2023-07-16T01:44:44;18.90;99.90
1578;DHT22;57623;53.608;10.004;2023-07-16T01:47:24;18.90;99.90
1578;DHT22;57623;53.608;10.004;2023-07-16T01:49:58;18.90;99.90
1578;DHT22;57623;53.608;10.004;2023-07-16T01:52:26;18.90;99.90
1578;DHT22;57623;53.608;10.004;2023-07-16T01:54:54;18.80;99.90
1578;DHT22;57623;53.608;10.004;2023-07-16T01:57:22;18.90;99.90
1578;DHT22;57623;53.608;10.004;2023-07-16T01:59:49;18.80;99.90
1578;DHT22;57623;53.608;10.004;2023-07-16T02:02:19;18.70;99.90
1578;DHT22;57623;53.608;10.004;2023-07-16T02:04:47;18.70;99.90
1578;DHT22;57623;53.608;10.004;2023-07-16T02:07:15;18.70;99.90
1578;DHT22;57623;53.608;10.004;2023-07-16T02:09:43;18.70;99.90
1578;DHT22;57623;53.608;10.004;2023-07-16T02:12:11;18.70;99.90
1578;DHT22;57623;53.608;10.004;2023-07-16T02:14:39;18.70;99.90
1578;DHT22;57623;53.608;10.004;2023-07-16T02:17:07;18.70;99.90
1578;DHT22;57623;53.608;10.004;2023-07-16T02:19:36;18.70;99.90
1578;DHT22;57623;53.608;10.004;2023-07-16T02:22:04;18.70;99.90
1578;DHT22;57623;53.608;10.004;2023-07-16T02:24:32;18.70;99.90
1578;DHT22;57623;53.608;10.004;2023-07-16T02:27:00;18.60;99.90
1578;DHT22;57623;53.608;10.004;2023-07-16T02:29:28;18.60;99.90
1578;DHT22;57623;53.608;10.004;2023-07-16T02:31:56;18.60;99.90
1578;DHT22;57623;53.608;10.004;2023-07-16T02:34:24;18.50;99.90
1578;DHT22;57623;53.608;10.004;2023-07-16T02:36:53;18.50;99.90
1578;DHT22;57623;53.608;10.004;2023-07-16T02:39:21;18.60;99.90
1578;DHT22;57623;53.608;10.004;2023-07-16T02:41:49;18.60;99.90
1578;DHT22;57623;53.608;10.004;2023-07-16T02:44:17;18.50;99.90
1578;DHT22;57623;53.608;10.004;2023-07-16T02:46:45;18.50;99.90
1578;DHT22;57623;53.608;10.004;2023-07-16T02:49:13;18.40;99.90
1578;DHT22;57623;53.608;10.004;2023-07-16T02:51:41;18.50;99.90
1578;DHT22;57623;53.608;10.004;2023-07-16T02:54:11;18.40;99.90
1578;DHT22;57623;53.608;10.004;2023-07-16T02:56:39;18.40;99.90
1578;DHT22;57623;53.608;10.004;2023-07-16T02:59:07;18.40;99.90
1578;DHT22;57623;53.608;10.004;2023-07-16T03:01:35;18.40;99.90
1578;DHT22;57623;53.608;10.004;2023-07-16T03:04:03;18.40;99.90
1578;DHT22;57623;53.608;10.004;2023-07-16T03:06:31;18.40;99.90
1578;DHT22;57623;53.608;10.004;2023-07-16T03:08:59;18.50;99.90
1578;DHT22;57623;53.608;10.004;2023-07-16T03:11:28;18.50;99.90
1578;DHT22;57623;53.608;10.004;2023-07-16T03:13:56;18.40;99.90
1578;DHT22;57623;53.608;10.004;2023-07-16T03:16:24;18.40;99.90
1578;DHT22;57623;53.608;10.004;2023-07-16T03:18:53;18.40;99.90
1578;DHT22;57623;53.608;10.004;2023-07-16T03:21:21;18.40;99.90
1578;DHT22;57623;53.608;10.004;2023-07-16T03:23:49;18.40;99.90
1578;DHT22;57623;53.608;10.004;2023-07-16T03:26:17;18.40;99.90
1578;DHT22;57623;53.608;10.004;2023-07-16T03:28:46;18.40;99.90
1578;DHT22;57623;53.608;10.004;2023-07-16T03:31:14;18.40;99.90
1578;DHT22;57623;53.608;10.004;2023-07-16T03:33:42;18.40;99.90
1578;DHT22;57623;53.608;10.004;2023-07-16T03:36:10;18.40;99.90
1578;DHT22;57623;53.608;10.004;2023-07-16T03:38:38;18.40;99.90
1578;DHT22;57623;53.608;10.004;2023-07-16T03:41:06;18.40;99.90
1578;DHT22;57623;53.608;10.004;2023-07-16T03:43:34;18.40;99.90
1578;DHT22;57623;53.608;10.004;2023-07-16T03:46:03;18.40;99.90
1578;DHT22;57623;53.608;10.004;2023-07-16T03:48:34;18.40;99.90
1578;DHT22;57623;53.608;10.004;2023-07-16T03:51:02;18.40;99.90
1578;DHT22;57623;53.608;10.004;2023-07-16T03:53:30;18.40;99.90
1578;DHT22;57623;53.608;10.004;2023-07-16T03:55:58;18.40;99.90
1578;DHT22;57623;53.608;10.004;2023-07-16T03:58:26;18.30;99.90
1578;DHT22;57623;53.608;10.004;2023-07-16T04:00:55;18.30;99.90
1578;DHT22;57623;53.608;10.004;2023-07-16T04:03:25;18.30;99.90
1578;DHT22;57623;53.608;10.004;2023-07-16T04:06:01;18.30;99.90
1578;DHT22;57623;53.608;10.004;2023-07-16T04:08:29;18.30;99.90
1578;DHT22;57623;53.608;10.004;2023-07-16T04:10:57;18.30;99.90
1578;DHT22;57623;53.608;10.004;2023-07-16T04:13:26;18.30;99.90
1578;DHT22;57623;53.608;10.004;2023-07-16T04:15:53;18.30;99.90
1578;DHT22;57623;53.608;10.004;2023-07-16T04:18:25;18.30;99.90
1578;DHT22;57623;53.608;10.004;2023-07-16T04:20:53;18.30;99.90
1578;DHT22;57623;53.608;10.004;2023-07-16T04:23:21;18.30;99.90
1578;DHT22;57623;53.608;10.004;2023-07-16T04:25:51;18.30;99.90
1578;DHT22;57623;53.608;10.004;2023-07-16T04:28:20;18.40;99.90
1578;DHT22;57623;53.608;10.004;2023-07-16T04:30:48;18.30;99.90
1578;DHT22;57623;53.608;10.004;2023-07-16T04:33:17;18.40;99.90
1578;DHT22;57623;53.608;10.004;2023-07-16T04:35:47;18.30;99.90
1578;DHT22;57623;53.608;10.004;2023-07-16T04:38:15;18.40;99.90
1578;DHT22;57623;53.608;10.004;2023-07-16T04:40:43;18.40;99.90
1578;DHT22;57623;53.608;10.004;2023-07-16T04:43:11;18.40;99.90
1578;DHT22;57623;53.608;10.004;2023-07-16T04:45:39;18.40;99.90
1578;DHT22;57623;53.608;10.004;2023-07-16T04:48:07;18.40;99.90
1578;DHT22;57623;53.608;10.004;2023-07-16T04:50:35;18.50;99.90
1578;DHT22;57623;53.608;10.004;2023-07-16T04:53:04;18.60;99.90
1578;DHT22;57623;53.608;10.004;2023-07-16T04:55:35;18.60;99.90
1578;DHT22;57623;53.608;10.004;2023-07-16T04:58:03;18.70;99.90
1578;DHT22;57623;53.608;10.004;2023-07-16T05:00:31;18.70;99.90
1578;DHT22;57623;53.608;10.004;2023-07-16T05:03:00;18.80;99.90
1578;DHT22;57623;53.608;10.004;2023-07-16T05:05:28;18.80;99.90
1578;DHT22;57623;53.608;10.004;2023-07-16T05:07:56;18.90;99.90
1578;DHT22;57623;53.608;10.004;2023-07-16T05:10:27;18.90;99.90
1578;DHT22;57623;53.608;10.004;2023-07-16T05:12:55;19.00;99.90
1578;DHT22;57623;53.608;10.004;2023-07-16T05:15:23;19.00;99.90
1578;DHT22;57623;53.608;10.004;2023-07-16T05:17:50;19.10;99.90
1578;DHT22;57623;53.608;10.004;2023-07-16T05:20:19;19.10;99.90
1578;DHT22;57623;53.608;10.004;2023-07-16T05:22:47;19.20;99.90
1578;DHT22;57623;53.608;10.004;2023-07-16T05:25:15;19.20;99.90
1578;DHT22;57623;53.608;10.004;2023-07-16T05:27:44;19.20;99.90
1578;DHT22;57623;53.608;10.004;2023-07-16T05:30:12;19.20;99.90
1578;DHT22;57623;53.608;10.004;2023-07-16T05:32:40;19.20;99.90
1578;DHT22;57623;53.608;10.004;2023-07-16T05:35:09;19.20;99.90
1578;DHT22;57623;53.608;10.004;2023-07-16T05:37:37;19.20;99.90
1578;DHT22;57623;53.608;10.004;2023-07-16T05:40:06;19.30;99.90
1578;DHT22;57623;53.608;10.004;2023-07-16T05:42:35;19.30;99.90
1578;DHT22;57623;53.608;10.004;2023-07-16T05:45:05;19.30;99.90
1578;DHT22;57623;53.608;10.004;2023-07-16T05:47:33;19.40;99.90
1578;DHT22;57623;53.608;10.004;2023-07-16T05:50:02;19.30;99.90
1578;DHT22;57623;53.608;10.004;2023-07-16T05:52:30;19.40;99.90
1578;DHT22;57623;53.608;10.004;2023-07-16T05:54:58;19.40;99.90
1578;DHT22;57623;53.608;10.004;2023-07-16T05:57:26;19.50;99.90
1578;DHT22;57623;53.608;10.004;2023-07-16T05:59:54;19.50;99.90
1578;DHT22;57623;53.608;10.004;2023-07-16T06:02:23;19.60;99.90
1578;DHT22;57623;53.608;10.004;2023-07-16T06:04:52;19.60;99.90
1578;DHT22;57623;53.608;10.004;2023-07-16T06:07:20;19.60;99.90
1578;DHT22;57623;53.608;10.004;2023-07-16T06:09:47;19.70;99.90
1578;DHT22;57623;53.608;10.004;2023-07-16T06:12:15;19.70;99.90
1578;DHT22;57623;53.608;10.004;2023-07-16T06:14:43;19.70;99.90
1578;DHT22;57623;53.608;10.004;2023-07-16T06:17:11;19.80;99.90
1578;DHT22;57623;53.608;10.004;2023-07-16T06:19:41;19.80;99.90
1578;DHT22;57623;53.608;10.004;2023-07-16T06:22:09;19.90;99.90
1578;DHT22;57623;53.608;10.004;2023-07-16T06:24:37;19.90;99.90
1578;DHT22;57623;53.608;10.004;2023-07-16T06:27:05;19.90;99.90
1578;DHT22;57623;53.608;10.004;2023-07-16T06:29:33;20.00;99.90
1578;DHT22;57623;53.608;10.004;2023-07-16T06:32:01;19.90;99.90
1578;DHT22;57623;53.608;10.004;2023-07-16T06:34:30;20.00;99.90
1578;DHT22;57623;53.608;10.004;2023-07-16T06:36:59;20.00;99.90
1578;DHT22;57623;53.608;10.004;2023-07-16T06:39:27;20.10;99.90
1578;DHT22;57623;53.608;10.004;2023-07-16T06:41:55;20.10;99.90
1578;DHT22;57623;53.608;10.004;2023-07-16T06:44:23;20.20;99.90
1578;DHT22;57623;53.608;10.004;2023-07-16T06:46:51;20.30;99.90
1578;DHT22;57623;53.608;10.004;2023-07-16T06:49:19;20.30;99.90
1578;DHT22;57623;53.608;10.004;2023-07-16T06:51:47;20.40;99.90
1578;DHT22;57623;53.608;10.004;2023-07-16T06:54:17;20.40;99.90
1578;DHT22;57623;53.608;10.004;2023-07-16T06:56:44;20.30;99.90
1578;DHT22;57623;53.608;10.004;2023-07-16T06:59:12;20.30;99.90
1578;DHT22;57623;53.608;10.004;2023-07-16T07:01:40;20.40;99.90
1578;DHT22;57623;53.608;10.004;2023-07-16T07:04:08;20.40;99.90
1578;DHT22;57623;53.608;10.004;2023-07-16T07:06:37;20.40;99.90
1578;DHT22;57623;53.608;10.004;2023-07-16T07:09:05;20.50;99.90
1578;DHT22;57623;53.608;10.004;2023-07-16T07:11:34;20.50;99.90
1578;DHT22;57623;53.608;10.004;2023-07-16T07:14:02;20.50;99.90
1578;DHT22;57623;53.608;10.004;2023-07-16T07:16:30;20.50;99.90
1578;DHT22;57623;53.608;10.004;2023-07-16T07:18:58;20.50;99.90
1578;DHT22;57623;53.608;10.004;2023-07-16T07:21:26;20.50;99.90
1578;DHT22;57623;53.608;10.004;2023-07-16T07:23:54;20.50;99.90
1578;DHT22;57623;53.608;10.004;2023-07-16T07:26:22;20.50;99.90
1578;DHT22;57623;53.608;10.004;2023-07-16T07:28:51;20.50;99.90
1578;DHT22;57623;53.608;10.004;2023-07-16T07:31:19;20.60;99.90
1578;DHT22;57623;53.608;10.004;2023-07-16T07:33:48;20.70;99.90
1578;DHT22;57623;53.608;10.004;2023-07-16T07:36:15;20.80;99.90
1578;DHT22;57623;53.608;10.004;2023-07-16T07:38:44;20.90;99.90
1578;DHT22;57623;53.608;10.004;2023-07-16T07:41:12;20.80;99.90
1578;DHT22;57623;53.608;10.004;2023-07-16T07:43:40;20.80;99.90
1578;DHT22;57623;53.608;10.004;2023-07-16T07:46:09;20.80;99.90
1578;DHT22;57623;53.608;10.004;2023-07-16T07:48:37;20.90;99.90
1578;DHT22;57623;53.608;10.004;2023-07-16T07:51:05;20.90;99.90
1578;DHT22;57623;53.608;10.004;2023-07-16T07:53:33;20.90;99.90
1578;DHT22;57623;53.608;10.004;2023-07-16T07:56:01;20.90;99.90
1578;DHT22;57623;53.608;10.004;2023-07-16T07:58:29;21.00;99.90
1578;DHT22;57623;53.608;10.004;2023-07-16T08:01:04;21.00;99.90
1578;DHT22;57623;53.608;10.004;2023-07-16T08:03:33;21.10;99.90
1578;DHT22;57623;53.608;10.004;2023-07-16T08:06:01;21.20;99.90
1578;DHT22;57623;53.608;10.004;2023-07-16T08:08:29;21.30;99.90
1578;DHT22;57623;53.608;10.004;2023-07-16T08:10:57;21.30;99.90
1578;DHT22;57623;53.608;10.004;2023-07-16T08:13:25;21.40;99.90
1578;DHT22;57623;53.608;10.004;2023-07-16T08:15:53;21.50;99.90
1578;DHT22;57623;53.608;10.004;2023-07-16T08:18:21;21.60;99.90
1578;DHT22;57623;53.608;10.004;2023-07-16T08:20:51;21.60;99.90
1578;DHT22;57623;53.608;10.004;2023-07-16T08:23:19;21.50;99.90
1578;DHT22;57623;53.608;10.004;2023-07-16T08:25:49;21.50;99.90
1578;DHT22;57623;53.608;10.004;2023-07-16T08:28:18;21.40;99.90
1578;DHT22;57623;53.608;10.004;2023-07-16T08:30:46;21.40;99.90
1578;DHT22;57623;53.608;10.004;2023-07-16T08:33:15;21.40;99.90
1578;DHT22;57623;53.608;10.004;2023-07-16T08:35:43;21.40;99.90
1578;DHT22;57623;53.608;10.004;2023-07-16T08:38:12;21.50;99.90
1578;DHT22;57623;53.608;10.004;2023-07-16T08:40:40;21.50;99.90
1578;DHT22;57623;53.608;10.004;2023-07-16T08:43:09;21.60;99.90
1578;DHT22;57623;53.608;10.004;2023-07-16T08:45:39;21.60;99.90
1578;DHT22;57623;53.608;10.004;2023-07-16T08:48:09;21.70;99.90
1578;DHT22;57623;53.608;10.004;2023-07-16T08:50:37;21.70;99.90
1578;DHT22;57623;53.608;10.004;2023-07-16T08:53:06;21.80;99.90
1578;DHT22;57623;53.608;10.004;2023-07-16T08:55:36;21.70;99.90
1578;DHT22;57623;53.608;10.004;2023-07-16T08:58:05;21.70;99.90
1578;DHT22;57623;53.608;10.004;2023-07-16T09:00:34;21.70;99.90
1578;DHT22;57623;53.608;10.004;2023-07-16T09:03:02;21.70;99.90
1578;DHT22;57623;53.608;10.004;2023-07-16T09:05:30;21.80;99.90
1578;DHT22;57623;53.608;10.004;2023-07-16T09:08:06;21.80;99.90
1578;DHT22;57623;53.608;10.004;2023-07-16T09:10:35;21.90;99.90
1578;DHT22;57623;53.608;10.004;2023-07-16T09:13:03;22.00;99.90
1578;DHT22;57623;53.608;10.004;2023-07-16T09:15:31;21.90;99.90
1578;DHT22;57623;53.608;10.004;2023-07-16T09:18:01;22.00;99.90
1578;DHT22;57623;53.608;10.004;2023-07-16T09:20:30;22.00;99.90
1578;DHT22;57623;53.608;10.004;2023-07-16T09:22:58;21.90;99.90
1578;DHT22;57623;53.608;10.004;2023-07-16T09:25:27;21.90;99.90
1578;DHT22;57623;53.608;10.004;2023-07-16T09:28:00;22.00;99.90
1578;DHT22;57623;53.608;10.004;2023-07-16T09:30:31;22.10;99.90
1578;DHT22;57623;53.608;10.004;2023-07-16T09:33:09;22.20;99.90
1578;DHT22;57623;53.608;10.004;2023-07-16T09:35:38;22.20;99.90
1578;DHT22;57623;53.608;10.004;2023-07-16T09:38:07;22.30;99.90
1578;DHT22;57623;53.608;10.004;2023-07-16T09:40:37;22.20;99.90
1578;DHT22;57623;53.608;10.004;2023-07-16T09:43:06;22.20;99.90
1578;DHT22;57623;53.608;10.004;2023-07-16T09:45:35;22.20;99.90
1578;DHT22;57623;53.608;10.004;2023-07-16T09:48:04;22.40;99.90
1578;DHT22;57623;53.608;10.004;2023-07-16T09:50:33;22.40;99.90
1578;DHT22;57623;53.608;10.004;2023-07-16T09:53:03;22.50;99.90
1578;DHT22;57623;53.608;10.004;2023-07-16T09:55:33;22.60;99.90
1578;DHT22;57623;53.608;10.004;2023-07-16T09:58:05;22.70;99.90
1578;DHT22;57623;53.608;10.004;2023-07-16T10:00:36;22.60;99.90
1578;DHT22;57623;53.608;10.004;2023-07-16T10:03:07;22.50;99.90
1578;DHT22;57623;53.608;10.004;2023-07-16T10:05:36;22.50;99.90
1578;DHT22;57623;53.608;10.004;2023-07-16T10:08:05;22.50;99.90
1578;DHT22;57623;53.608;10.004;2023-07-16T10:10:45;22.50;99.90
1578;DHT22;57623;53.608;10.004;2023-07-16T10:13:15;22.50;99.90
1578;DHT22;57623;53.608;10.004;2023-07-16T10:15:55;22.50;99.90
1578;DHT22;57623;53.608;10.004;2023-07-16T10:18:28;22.50;99.90
1578;DHT22;57623;53.608;10.004;2023-07-16T10:21:02;22.60;99.90
1578;DHT22;57623;53.608;10.004;2023-07-16T10:23:39;22.70;99.90
1578;DHT22;57623;53.608;10.004;2023-07-16T10:26:09;22.80;99.90
1578;DHT22;57623;53.608;10.004;2023-07-16T10:28:39;22.80;99.90
1578;DHT22;57623;53.608;10.004;2023-07-16T10:31:21;22.80;99.90
1578;DHT22;57623;53.608;10.004;2023-07-16T10:33:59;22.80;99.90
1578;DHT22;57623;53.608;10.004;2023-07-16T10:36:27;22.80;99.90
1578;DHT22;57623;53.608;10.004;2023-07-16T10:39:02;22.80;99.90
1578;DHT22;57623;53.608;10.004;2023-07-16T10:41:31;22.80;99.90
1578;DHT22;57623;53.608;10.004;2023-07-16T10:43:59;22.90;99.90
1578;DHT22;57623;53.608;10.004;2023-07-16T10:46:30;23.00;99.90
1578;DHT22;57623;53.608;10.004;2023-07-16T10:48:59;23.20;99.90
1578;DHT22;57623;53.608;10.004;2023-07-16T10:51:27;23.40;99.90
1578;DHT22;57623;53.608;10.004;2023-07-16T10:53:55;23.50;99.90
1578;DHT22;57623;53.608;10.004;2023-07-16T10:56:24;23.50;99.90
1578;DHT22;57623;53.608;10.004;2023-07-16T10:58:52;23.40;99.90
1578;DHT22;57623;53.608;10.004;2023-07-16T11:01:20;23.30;99.90
1578;DHT22;57623;53.608;10.004;2023-07-16T11:03:50;23.30;99.90
1578;DHT22;57623;53.608;10.004;2023-07-16T11:06:18;23.40;99.90
1578;DHT22;57623;53.608;10.004;2023-07-16T11:08:46;23.50;99.90
1578;DHT22;57623;53.608;10.004;2023-07-16T11:11:14;23.50;99.90
1578;DHT22;57623;53.608;10.004;2023-07-16T11:13:43;23.60;99.90
1578;DHT22;57623;53.608;10.004;2023-07-16T11:16:15;23.60;99.90
1578;DHT22;57623;53.608;10.004;2023-07-16T11:18:44;23.50;99.90
1578;DHT22;57623;53.608;10.004;2023-07-16T11:21:14;23.50;99.90
1578;DHT22;57623;53.608;10.004;2023-07-16T11:23:46;23.50;99.90
1578;DHT22;57623;53.608;10.004;2023-07-16T11:26:15;23.50;99.90
1578;DHT22;57623;53.608;10.004;2023-07-16T11:28:43;23.60;99.90
1578;DHT22;57623;53.608;10.004;2023-07-16T11:31:13;23.60;99.90
1578;DHT22;57623;53.608;10.004;2023-07-16T11:33:42;23.80;99.90
1578;DHT22;57623;53.608;10.004;2023-07-16T11:36:11;24.00;99.90
1578;DHT22;57623;53.608;10.004;2023-07-16T11:38:40;24.10;99.90
1578;DHT22;57623;53.608;10.004;2023-07-16T11:41:09;24.20;99.90
1578;DHT22;57623;53.608;10.004;2023-07-16T11:43:37;24.30;99.90
1578;DHT22;57623;53.608;10.004;2023-07-16T11:46:16;24.30;99.90
1578;DHT22;57623;53.608;10.004;2023-07-16T11:48:45;24.20;99.90
1578;DHT22;57623;53.608;10.004;2023-07-16T11:51:13;24.30;99.90
1578;DHT22;57623;53.608;10.004;2023-07-16T11:53:42;24.30;99.90
1578;DHT22;57623;53.608;10.004;2023-07-16T11:56:10;24.40;99.90
1578;DHT22;57623;53.608;10.004;2023-07-16T11:58:38;24.40;99.90
1578;DHT22;57623;53.608;10.004;2023-07-16T12:01:06;24.40;99.90
1578;DHT22;57623;53.608;10.004;2023-07-16T12:03:34;24.40;99.90
1578;DHT22;57623;53.608;10.004;2023-07-16T12:06:02;24.50;99.90
1578;DHT22;57623;53.608;10.004;2023-07-16T12:08:30;24.40;99.90
1578;DHT22;57623;53.608;10.004;2023-07-16T12:11:00;24.60;99.90
1578;DHT22;57623;53.608;10.004;2023-07-16T12:13:29;24.80;99.90
1578;DHT22;57623;53.608;10.004;2023-07-16T12:15:56;24.80;99.90
1578;DHT22;57623;53.608;10.004;2023-07-16T12:18:24;24.60;99.90
1578;DHT22;57623;53.608;10.004;2023-07-16T12:20:53;24.50;99.90
1578;DHT22;57623;53.608;10.004;2023-07-16T12:23:21;24.40;99.90
1578;DHT22;57623;53.608;10.004;2023-07-16T12:25:50;24.30;99.90
1578;DHT22;57623;53.608;10.004;2023-07-16T12:28:19;24.40;99.90
1578;DHT22;57623;53.608;10.004;2023-07-16T12:30:47;24.40;99.90
1578;DHT22;57623;53.608;10.004;2023-07-16T12:33:15;24.40;99.90
1578;DHT22;57623;53.608;10.004;2023-07-16T12:35:43;24.50;99.90
1578;DHT22;57623;53.608;10.004;2023-07-16T12:38:12;24.50;99.90
1578;DHT22;57623;53.608;10.004;2023-07-16T12:40:40;24.70;99.90
1578;DHT22;57623;53.608;10.004;2023-07-16T12:43:08;24.80;99.90
1578;DHT22;57623;53.608;10.004;2023-07-16T12:45:37;24.90;99.90
1578;DHT22;57623;53.608;10.004;2023-07-16T12:48:05;24.90;99.90
1578;DHT22;57623;53.608;10.004;2023-07-16T12:50:34;24.90;99.90
1578;DHT22;57623;53.608;10.004;2023-07-16T12:53:02;25.00;99.90
1578;DHT22;57623;53.608;10.004;2023-07-16T12:55:31;25.00;99.90
1578;DHT22;57623;53.608;10.004;2023-07-16T12:58:00;25.10;99.90
1578;DHT22;57623;53.608;10.004;2023-07-16T13:00:28;25.20;99.50
1578;DHT22;57623;53.608;10.004;2023-07-16T13:02:57;25.20;99.40
1578;DHT22;57623;53.608;10.004;2023-07-16T13:05:26;25.40;99.90
1578;DHT22;57623;53.608;10.004;2023-07-16T13:07:54;25.50;99.60
1578;DHT22;57623;53.608;10.004;2023-07-16T13:10:22;25.60;99.90
1578;DHT22;57623;53.608;10.004;2023-07-16T13:12:50;25.80;99.90
1578;DHT22;57623;53.608;10.004;2023-07-16T13:15:18;25.90;99.10
1578;DHT22;57623;53.608;10.004;2023-07-16T13:17:46;25.90;98.30
1578;DHT22;57623;53.608;10.004;2023-07-16T13:20:17;25.90;98.30
1578;DHT22;57623;53.608;10.004;2023-07-16T13:22:45;26.00;97.00
1578;DHT22;57623;53.608;10.004;2023-07-16T13:25:13;26.00;95.40
1578;DHT22;57623;53.608;10.004;2023-07-16T13:27:41;26.10;97.70
1578;DHT22;57623;53.608;10.004;2023-07-16T13:30:10;26.20;95.10
1578;DHT22;57623;53.608;10.004;2023-07-16T13:32:38;26.10;93.10
1578;DHT22;57623;53.608;10.004;2023-07-16T13:35:07;25.90;95.20
1578;DHT22;57623;53.608;10.004;2023-07-16T13:37:37;25.60;97.50
1578;DHT22;57623;53.608;10.004;2023-07-16T13:40:06;25.40;97.10
1578;DHT22;57623;53.608;10.004;2023-07-16T13:42:35;25.20;96.90
1578;DHT22;57623;53.608;10.004;2023-07-16T13:45:03;25.10;99.90
1578;DHT22;57623;53.608;10.004;2023-07-16T13:47:31;25.20;99.90
1578;DHT22;57623;53.608;10.004;2023-07-16T13:50:00;25.30;99.90
1578;DHT22;57623;53.608;10.004;2023-07-16T13:52:28;25.50;99.90
1578;DHT22;57623;53.608;10.004;2023-07-16T13:54:57;25.70;99.90
1578;DHT22;57623;53.608;10.004;2023-07-16T13:57:25;26.00;99.90
1578;DHT22;57623;53.608;10.004;2023-07-16T13:59:53;26.20;94.40
1578;DHT22;57623;53.608;10.004;2023-07-16T14:02:21;26.30;95.30
1578;DHT22;57623;53.608;10.004;2023-07-16T14:04:49;26.20;95.10
1578;DHT22;57623;53.608;10.004;2023-07-16T14:07:17;26.00;93.40
1578;DHT22;57623;53.608;10.004;2023-07-16T14:09:45;25.70;96.00
1578;DHT22;57623;53.608;10.004;2023-07-16T14:12:14;25.40;98.40
1578;DHT22;57623;53.608;10.004;2023-07-16T14:14:42;25.20;99.90
1578;DHT22;57623;53.608;10.004;2023-07-16T14:17:10;25.20;99.90
1578;DHT22;57623;53.608;10.004;2023-07-16T14:19:38;25.10;99.90
1578;DHT22;57623;53.608;10.004;2023-07-16T14:22:06;25.00;99.90
1578;DHT22;57623;53.608;10.004;2023-07-16T14:24:38;24.90;99.90
1578;DHT22;57623;53.608;10.004;2023-07-16T14:27:07;24.80;99.90
1578;DHT22;57623;53.608;10.004;2023-07-16T14:29:36;24.80;99.90
1578;DHT22;57623;53.608;10.004;2023-07-16T14:32:16;24.80;99.90
1578;DHT22;57623;53.608;10.004;2023-07-16T14:34:44;24.80;99.90
1578;DHT22;57623;53.608;10.004;2023-07-16T14:37:12;24.80;99.90
1578;DHT22;57623;53.608;10.004;2023-07-16T14:39:40;24.70;99.90
1578;DHT22;57623;53.608;10.004;2023-07-16T14:42:08;24.70;99.90
1578;DHT22;57623;53.608;10.004;2023-07-16T14:44:38;24.80;99.90
1578;DHT22;57623;53.608;10.004;2023-07-16T14:47:06;25.00;99.90
1578;DHT22;57623;53.608;10.004;2023-07-16T14:49:34;25.40;99.90
1578;DHT22;57623;53.608;10.004;2023-07-16T14:52:03;25.80;99.90
1578;DHT22;57623;53.608;10.004;2023-07-16T14:54:31;25.90;99.90
1578;DHT22;57623;53.608;10.004;2023-07-16T14:57:00;26.00;99.90
1578;DHT22;57623;53.608;10.004;2023-07-16T14:59:29;26.00;98.60
1578;DHT22;57623;53.608;10.004;2023-07-16T15:01:59;25.90;99.70
1578;DHT22;57623;53.608;10.004;2023-07-16T15:04:27;25.70;99.90
1578;DHT22;57623;53.608;10.004;2023-07-16T15:06:55;25.70;99.90
1578;DHT22;57623;53.608;10.004;2023-07-16T15:09:23;25.80;99.90
1578;DHT22;57623;53.608;10.004;2023-07-16T15:11:51;25.90;99.90
1578;DHT22;57623;53.608;10.004;2023-07-16T15:14:19;26.20;96.50
1578;DHT22;57623;53.608;10.004;2023-07-16T15:16:47;26.40;93.80
1578;DHT22;57623;53.608;10.004;2023-07-16T15:19:17;26.60;97.90
1578;DHT22;57623;53.608;10.004;2023-07-16T15:21:46;26.90;97.30
1578;DHT22;57623;53.608;10.004;2023-07-16T15:24:14;27.10;93.10
1578;DHT22;57623;53.608;10.004;2023-07-16T15:26:43;27.20;90.60
1578;DHT22;57623;53.608;10.004;2023-07-16T15:29:11;27.20;87.30
1578;DHT22;57623;53.608;10.004;2023-07-16T15:31:39;27.10;85.90
1578;DHT22;57623;53.608;10.004;2023-07-16T15:34:07;27.10;81.70
1578;DHT22;57623;53.608;10.004;2023-07-16T15:36:36;27.20;83.20
1578;DHT22;57623;53.608;10.004;2023-07-16T15:39:06;27.30;85.60
1578;DHT22;57623;53.608;10.004;2023-07-16T15:41:34;27.40;78.60